KBLI/BLI METAR and TAF weather

Enter ICAO airport designator
Station Type Date Time Source
KBLI METAR 2018/12/10 16:53 UTC NOAA

KBLI 101653Z 18010G16KT 8SM -RA SCT017 BKN025 OVC045 07/05 A3022 RMK AO2 RAB24 SLP240 P0001 T00720050


Station Type Date Time Source
KBLI Decoded METAR 2018/12/10 16:53 UTC NOAA

BELLINGHAM INTERNATIONAL AIRPORT, WA, United States (KBLI) 48-48N 122-32W 50M
Dec 10, 2018 - 11:53 AM EST / 2018.12.10 1653 UTC
Wind: from the S (180 degrees) at 12 MPH (10 KT) gusting to 18 MPH (16 KT):0
Visibility: 8 mile(s):0
Sky conditions: overcast
Weather: light rain
Precipitation last hour: 0.01 inches
Temperature: 45.0 F (7.2 C)
Dew Point: 41.0 F (5.0 C)
Relative Humidity: 85%
Pressure (altimeter): 30.22 in. Hg (1023 hPa)
ob: KBLI 101653Z 18010G16KT 8SM -RA SCT017 BKN025 OVC045 07/05 A3022 RMK AO2 RAB24 SLP240 P0001 T00720050
cycle: 17

Station Type Date Time Source
KBLI TAF 2018/12/10 18:22 UTC NOAA

TAF KBLI 101720Z 1018/1118 18012KT P6SM -SHRA BKN025 BKN050
FM102200 18010KT P6SM SCT030 BKN050 BKN120
FM111000 16012KT P6SM -RA OVC040
FM111500 16017G27KT 5SM -RA BR OVC025


Example: see airport list